Time;durP1;ratioP1;P1;durP2;ratioP2;P2;SDS_P1;SDS_P2;PMS_P1;PMS_P2;Temp;Humidity;BMP_temperature;BMP_pressure;BME280_temperature;BME280_humidity;BME280_pressure;Samples;Min_cycle;Max_cycle;Signal;HPM_P1;HPM_P2
2023/02/17 00:01:26;;;;;;;9.90;6.70;;;7.60;99.90;;;;;;5031001;28;20226;-49
2023/02/17 00:03:53;;;;;;;10.20;5.43;;;7.60;99.90;;;;;;5033480;28;20268;-47
2023/02/17 00:06:22;;;;;;;7.60;5.17;;;7.70;99.90;;;;;;5042778;28;20259;-48
2023/02/17 00:08:50;;;;;;;10.23;5.17;;;7.60;99.90;;;;;;5048699;28;20211;-47
2023/02/17 00:11:18;;;;;;;6.67;4.73;;;7.70;99.90;;;;;;5036344;28;20297;-48
2023/02/17 00:13:45;;;;;;;8.33;5.80;;;7.70;99.90;;;;;;5040536;28;20337;-48
2023/02/17 00:16:18;;;;;;;13.30;5.87;;;7.70;99.90;;;;;;5050777;28;20237;-48
2023/02/17 00:18:45;;;;;;;6.70;4.87;;;7.60;99.90;;;;;;5041882;28;20653;-50
2023/02/17 00:21:14;;;;;;;7.13;5.40;;;7.50;99.90;;;;;;5036832;28;20219;-48
2023/02/17 00:23:41;;;;;;;6.73;5.23;;;7.40;99.90;;;;;;5030248;28;20258;-49
2023/02/17 00:26:08;;;;;;;7.80;5.50;;;7.40;99.90;;;;;;5030758;28;20260;-47
2023/02/17 00:28:35;;;;;;;8.77;6.43;;;7.50;99.90;;;;;;5030679;28;20294;-48
2023/02/17 00:31:07;;;;;;;11.27;5.43;;;7.40;99.90;;;;;;5030873;28;20232;-47
2023/02/17 00:33:35;;;;;;;6.97;5.23;;;7.40;99.90;;;;;;5038226;28;20228;-49
2023/02/17 00:36:07;;;;;;;9.03;5.77;;;7.40;99.90;;;;;;5034460;28;20208;-48
2023/02/17 00:38:34;;;;;;;11.83;5.97;;;7.30;99.90;;;;;;5038983;28;20198;-48
2023/02/17 00:41:01;;;;;;;10.47;4.93;;;7.20;99.90;;;;;;5050382;28;20223;-48
2023/02/17 00:43:28;;;;;;;9.33;5.30;;;7.20;99.90;;;;;;5036904;28;20199;-49
2023/02/17 00:45:55;;;;;;;5.57;5.00;;;7.20;99.90;;;;;;5027019;28;20248;-48
2023/02/17 00:48:23;;;;;;;9.50;6.50;;;7.10;99.90;;;;;;5030955;28;20201;-48
2023/02/17 00:50:52;;;;;;;10.10;6.53;;;7.00;99.90;;;;;;5035484;28;20263;-47
2023/02/17 00:53:20;;;;;;;10.20;7.77;;;6.90;99.90;;;;;;5037348;28;20200;-47
2023/02/17 00:55:47;;;;;;;8.97;7.83;;;6.80;99.90;;;;;;5032666;28;20303;-48
2023/02/17 00:58:14;;;;;;;15.43;8.07;;;6.70;99.90;;;;;;5025105;28;20196;-49
2023/02/17 01:00:42;;;;;;;11.33;8.30;;;6.60;99.90;;;;;;5040161;28;20220;-48
2023/02/17 01:03:09;;;;;;;9.30;7.53;;;6.60;99.90;;;;;;5054405;28;20199;-47
2023/02/17 01:05:41;;;;;;;10.00;8.07;;;6.50;99.90;;;;;;5045676;28;20208;-47
2023/02/17 01:08:10;;;;;;;9.13;7.43;;;6.50;99.90;;;;;;5044441;28;20632;-49
2023/02/17 01:10:38;;;;;;;10.73;7.57;;;6.40;99.90;;;;;;5041954;28;20710;-48
2023/02/17 01:13:05;;;;;;;10.53;9.07;;;6.40;99.90;;;;;;5041676;28;20301;-47
2023/02/17 01:15:36;;;;;;;14.43;8.10;;;6.30;99.90;;;;;;5033223;28;20612;-49
2023/02/17 01:18:04;;;;;;;12.10;7.90;;;6.40;99.90;;;;;;5027114;28;20651;-47
2023/02/17 01:20:33;;;;;;;12.00;7.67;;;6.30;99.90;;;;;;5048742;28;20228;-47
2023/02/17 01:23:01;;;;;;;9.43;7.10;;;6.30;99.90;;;;;;5044945;28;20258;-48
2023/02/17 01:25:29;;;;;;;10.23;7.77;;;6.30;99.90;;;;;;5037167;28;20741;-47
2023/02/17 01:27:56;;;;;;;8.57;7.33;;;6.30;99.90;;;;;;5037611;28;20250;-48
2023/02/17 01:30:23;;;;;;;10.23;7.23;;;6.30;99.90;;;;;;5045424;28;20285;-47
2023/02/17 01:32:50;;;;;;;8.07;7.13;;;6.20;99.90;;;;;;5041445;28;20253;-48
2023/02/17 01:35:17;;;;;;;7.83;6.40;;;6.20;99.90;;;;;;5035393;28;20631;-49
2023/02/17 01:37:44;;;;;;;6.73;5.67;;;6.20;99.90;;;;;;5036019;28;20576;-47
2023/02/17 01:40:13;;;;;;;8.30;5.53;;;6.10;99.90;;;;;;5043877;28;20199;-47
2023/02/17 01:42:42;;;;;;;7.30;4.63;;;6.10;99.90;;;;;;5035335;28;20671;-48
2023/02/17 01:45:31;;;;;;;8.33;5.63;;;6.10;99.90;;;;;;5045193;28;20203;-48
2023/02/17 01:48:02;;;;;;;5.37;4.43;;;6.20;99.90;;;;;;5051147;28;20203;-48
2023/02/17 01:50:34;;;;;;;5.57;4.93;;;6.30;99.90;;;;;;5033244;28;20226;-47
2023/02/17 01:53:04;;;;;;;5.63;4.50;;;6.30;99.90;;;;;;5036978;28;20633;-48
2023/02/17 01:55:33;;;;;;;5.77;4.57;;;6.30;99.90;;;;;;5052788;28;20207;-47
2023/02/17 01:58:04;;;;;;;6.63;5.20;;;6.30;99.90;;;;;;5039848;28;20255;-47
2023/02/17 02:00:34;;;;;;;7.67;4.63;;;6.40;99.90;;;;;;5045647;28;20212;-47
2023/02/17 02:03:02;;;;;;;8.10;5.60;;;6.40;99.90;;;;;;5030389;28;20282;-49
2023/02/17 02:05:29;;;;;;;9.00;6.20;;;6.40;99.90;;;;;;5041332;28;20202;-48
2023/02/17 02:07:57;;;;;;;9.60;5.83;;;6.30;99.90;;;;;;5034487;28;20228;-47
2023/02/17 02:10:24;;;;;;;11.03;6.20;;;6.40;99.90;;;;;;5039379;28;20223;-49
2023/02/17 02:12:51;;;;;;;8.93;4.97;;;6.30;99.90;;;;;;5030761;28;20270;-48
2023/02/17 02:15:22;;;;;;;5.03;4.63;;;6.30;99.90;;;;;;5036601;28;20208;-47
2023/02/17 02:18:16;;;;;;;5.23;4.27;;;6.30;99.90;;;;;;5040782;28;20254;-47
2023/02/17 02:21:01;;;;;;;8.30;5.07;;;6.30;99.90;;;;;;5052706;28;20227;-48
2023/02/17 02:23:53;;;;;;;4.80;4.30;;;6.30;99.90;;;;;;5040194;28;20240;-47
2023/02/17 02:26:57;;;;;;;5.27;4.40;;;6.30;99.90;;;;;;5033762;28;20212;-48
2023/02/17 02:30:02;;;;;;;6.60;4.10;;;6.30;99.90;;;;;;5036503;28;20196;-47
2023/02/17 02:32:49;;;;;;;7.57;4.87;;;6.30;99.90;;;;;;5031131;28;20200;-47
2023/02/17 02:35:27;;;;;;;10.20;4.07;;;6.30;99.90;;;;;;5034898;28;20725;-47
2023/02/17 02:37:59;;;;;;;5.73;4.37;;;6.20;99.90;;;;;;5040907;28;20203;-48
2023/02/17 02:40:31;;;;;;;5.27;4.07;;;6.20;99.90;;;;;;5052257;28;20798;-46
2023/02/17 02:43:02;;;;;;;6.00;3.70;;;6.20;99.90;;;;;;5046453;28;20207;-47
2023/02/17 02:45:30;;;;;;;7.20;3.97;;;6.30;99.90;;;;;;5039129;28;20244;-48
2023/02/17 02:47:59;;;;;;;3.83;3.20;;;6.30;99.90;;;;;;5033261;28;20195;-47
2023/02/17 02:50:40;;;;;;;4.47;3.03;;;6.30;99.90;;;;;;5033980;28;20219;-47
2023/02/17 02:53:29;;;;;;;6.20;3.73;;;6.50;99.90;;;;;;5033769;28;20239;-47
2023/02/17 02:56:09;;;;;;;5.30;3.27;;;6.60;99.90;;;;;;5031788;28;20729;-48
2023/02/17 02:58:43;;;;;;;3.13;2.83;;;6.80;99.90;;;;;;5029093;28;20204;-47
2023/02/17 03:01:18;;;;;;;9.43;3.73;;;6.90;99.90;;;;;;5045379;28;20750;-48
2023/02/17 03:03:53;;;;;;;3.40;2.60;;;6.90;99.90;;;;;;5052148;28;20765;-48
2023/02/17 03:06:27;;;;;;;5.57;2.80;;;7.00;99.90;;;;;;5043093;28;20215;-48
2023/02/17 03:09:00;;;;;;;3.23;2.83;;;7.10;99.90;;;;;;5046950;28;20194;-48
2023/02/17 03:11:32;;;;;;;3.47;3.17;;;7.10;99.90;;;;;;5036312;28;20286;-48
2023/02/17 03:14:01;;;;;;;3.20;2.57;;;7.10;99.90;;;;;;5012565;28;20201;-47
2023/02/17 03:16:28;;;;;;;2.23;2.03;;;7.10;99.90;;;;;;5013963;28;20212;-47
2023/02/17 03:18:57;;;;;;;4.57;2.20;;;7.20;99.90;;;;;;5037368;28;20234;-47
2023/02/17 03:21:29;;;;;;;4.10;2.70;;;7.20;99.90;;;;;;5047058;28;20245;-47
2023/02/17 03:23:56;;;;;;;3.03;2.73;;;7.20;99.90;;;;;;5031416;28;20201;-47
2023/02/17 03:26:23;;;;;;;3.50;2.67;;;7.10;99.90;;;;;;5035516;28;20660;-49
2023/02/17 03:28:49;;;;;;;3.23;2.43;;;7.10;99.90;;;;;;5034917;28;20207;-47
2023/02/17 03:31:17;;;;;;;4.30;2.57;;;7.10;99.90;;;;;;5038919;28;20273;-47
2023/02/17 03:33:44;;;;;;;5.07;2.13;;;7.10;99.90;;;;;;5045631;28;20203;-47
2023/02/17 03:36:12;;;;;;;3.67;2.27;;;7.10;99.90;;;;;;5029156;28;20204;-47
2023/02/17 03:38:39;;;;;;;4.37;2.40;;;7.00;99.90;;;;;;5036560;28;20238;-48
2023/02/17 03:41:06;;;;;;;3.57;2.57;;;7.00;99.90;;;;;;5043019;28;20227;-48
2023/02/17 03:43:34;;;;;;;2.90;2.60;;;7.00;99.90;;;;;;5038714;28;20211;-47
2023/02/17 03:46:01;;;;;;;2.47;2.20;;;7.00;99.90;;;;;;5037718;28;20203;-48
2023/02/17 03:48:28;;;;;;;1.80;1.70;;;7.00;99.90;;;;;;5036297;28;20207;-49
2023/02/17 03:50:55;;;;;;;4.33;2.83;;;7.00;99.90;;;;;;5039664;28;20230;-47
2023/02/17 03:53:23;;;;;;;2.93;2.23;;;7.00;99.90;;;;;;5030813;28;20739;-49
2023/02/17 03:55:50;;;;;;;4.37;2.37;;;6.90;99.90;;;;;;5032209;28;20200;-47
2023/02/17 03:58:17;;;;;;;2.27;2.07;;;6.90;99.90;;;;;;5042999;28;20196;-47
2023/02/17 04:00:44;;;;;;;1.70;1.60;;;6.90;99.90;;;;;;5041981;28;20685;-48
2023/02/17 04:03:11;;;;;;;5.53;2.33;;;6.90;99.90;;;;;;5044679;28;20199;-48
2023/02/17 04:05:38;;;;;;;1.50;1.40;;;6.90;99.90;;;;;;5051085;28;20207;-48
2023/02/17 04:08:05;;;;;;;3.00;2.13;;;6.80;99.90;;;;;;5044093;28;20915;-48
2023/02/17 04:10:33;;;;;;;7.03;2.20;;;6.80;99.90;;;;;;5031083;28;20361;-47
2023/02/17 04:13:00;;;;;;;2.53;2.17;;;6.90;99.90;;;;;;5029550;28;20246;-48
2023/02/17 04:15:28;;;;;;;2.87;2.20;;;6.90;99.90;;;;;;5038552;28;20195;-47
2023/02/17 04:17:55;;;;;;;3.20;1.93;;;7.00;99.90;;;;;;5051264;28;20222;-47
2023/02/17 04:20:22;;;;;;;5.20;2.87;;;7.00;99.90;;;;;;5050638;28;20281;-47
2023/02/17 04:22:49;;;;;;;4.70;2.60;;;7.00;99.90;;;;;;5034153;28;20223;-47
2023/02/17 04:25:16;;;;;;;2.27;1.67;;;7.00;99.90;;;;;;5030212;28;20612;-48
2023/02/17 04:27:44;;;;;;;4.03;1.93;;;7.00;99.90;;;;;;5039386;28;20279;-47
2023/02/17 04:30:13;;;;;;;2.77;2.00;;;7.00;99.90;;;;;;5034882;28;20249;-47
2023/02/17 04:32:39;;;;;;;5.40;2.80;;;7.00;99.90;;;;;;5042765;28;20204;-47
2023/02/17 04:35:07;;;;;;;3.43;2.17;;;6.90;99.90;;;;;;5036411;28;20292;-49
2023/02/17 04:37:35;;;;;;;4.03;1.90;;;7.00;99.90;;;;;;5032497;28;20201;-48
2023/02/17 04:40:03;;;;;;;3.57;1.67;;;6.90;99.90;;;;;;5034799;28;20717;-47
2023/02/17 04:42:30;;;;;;;2.07;1.77;;;6.90;99.90;;;;;;5034718;28;20265;-47
2023/02/17 04:44:58;;;;;;;2.37;1.83;;;7.00;99.90;;;;;;5034300;28;20249;-46
2023/02/17 04:47:25;;;;;;;2.07;1.80;;;7.00;99.90;;;;;;5033044;28;20203;-48
2023/02/17 04:49:52;;;;;;;3.20;2.53;;;7.00;99.90;;;;;;5036853;28;20212;-49
2023/02/17 04:52:19;;;;;;;2.23;1.90;;;6.90;99.90;;;;;;5033538;28;20203;-48
2023/02/17 04:54:46;;;;;;;4.30;2.00;;;7.00;99.90;;;;;;5046980;28;20208;-48
2023/02/17 04:57:13;;;;;;;3.27;2.10;;;7.00;99.90;;;;;;5039955;28;20657;-49
2023/02/17 04:59:40;;;;;;;8.37;1.73;;;7.00;99.90;;;;;;5042818;28;20254;-47
2023/02/17 05:02:08;;;;;;;1.80;1.70;;;7.00;99.90;;;;;;5041535;28;20223;-47
2023/02/17 05:04:36;;;;;;;2.27;1.43;;;7.00;99.90;;;;;;5033372;28;20624;-47
2023/02/17 05:07:03;;;;;;;3.30;2.23;;;7.00;99.90;;;;;;5046973;28;20673;-47
2023/02/17 05:09:30;;;;;;;3.00;1.90;;;7.00;99.90;;;;;;5054362;28;20210;-49
2023/02/17 05:11:57;;;;;;;3.40;2.20;;;7.00;99.90;;;;;;5054124;28;20224;-48
2023/02/17 05:14:24;;;;;;;3.43;1.83;;;7.00;99.90;;;;;;5048504;28;20282;-47
2023/02/17 05:16:51;;;;;;;2.40;1.70;;;6.90;99.90;;;;;;5032146;28;20261;-48
2023/02/17 05:19:19;;;;;;;2.07;1.77;;;6.90;99.90;;;;;;5048426;28;20200;-47
2023/02/17 05:21:46;;;;;;;8.03;2.40;;;7.00;99.90;;;;;;5038237;28;20278;-48
2023/02/17 05:24:13;;;;;;;3.03;2.40;;;7.10;99.90;;;;;;5039532;28;20534;-46
2023/02/17 05:26:40;;;;;;;4.10;2.70;;;7.10;99.90;;;;;;5047657;28;20261;-47
2023/02/17 05:29:06;;;;;;;4.37;2.00;;;7.20;99.90;;;;;;5030966;28;20246;-48
2023/02/17 05:31:33;;;;;;;2.50;1.90;;;7.20;99.90;;;;;;5063119;22;20280;-48
2023/02/17 05:34:00;;;;;;;4.07;1.90;;;7.20;99.90;;;;;;5065205;28;20684;-49
2023/02/17 05:36:29;;;;;;;5.20;2.00;;;7.30;99.90;;;;;;5066848;28;20197;-47
2023/02/17 05:38:56;;;;;;;3.67;1.70;;;7.30;99.90;;;;;;5063992;28;20207;-47
2023/02/17 05:41:23;;;;;;;2.80;1.87;;;7.40;99.90;;;;;;5062652;28;20294;-48
2023/02/17 05:43:50;;;;;;;6.50;2.33;;;7.40;99.90;;;;;;5069975;28;20199;-48
2023/02/17 05:46:17;;;;;;;2.67;1.83;;;7.50;99.90;;;;;;5063190;28;20293;-48
2023/02/17 05:48:44;;;;;;;4.63;1.60;;;7.50;99.90;;;;;;5056371;28;20568;-47
2023/02/17 05:51:12;;;;;;;2.07;1.20;;;7.40;99.90;;;;;;5060582;28;20214;-49
2023/02/17 05:53:40;;;;;;;1.97;1.83;;;7.30;99.90;;;;;;5061992;28;20282;-48
2023/02/17 05:56:07;;;;;;;1.43;1.33;;;7.20;99.90;;;;;;5055795;28;20207;-49
2023/02/17 05:58:34;;;;;;;1.63;1.43;;;7.10;99.90;;;;;;5064993;28;20191;-48
2023/02/17 06:01:01;;;;;;;1.57;1.00;;;7.10;99.90;;;;;;5073415;28;20223;-48
2023/02/17 06:03:28;;;;;;;3.03;2.33;;;7.10;99.90;;;;;;5058516;28;20220;-48
2023/02/17 06:05:55;;;;;;;4.73;1.80;;;7.10;99.90;;;;;;5061075;28;20213;-49
2023/02/17 06:08:22;;;;;;;8.43;1.93;;;7.10;99.90;;;;;;5053078;28;20711;-48
2023/02/17 06:10:53;;;;;;;2.67;1.73;;;7.10;99.90;;;;;;5054000;28;20208;-48
2023/02/17 06:13:20;;;;;;;5.60;2.10;;;7.10;99.90;;;;;;5064539;28;20185;-48
2023/02/17 06:15:47;;;;;;;3.07;1.93;;;7.10;99.90;;;;;;5072968;28;20201;-48
2023/02/17 06:18:14;;;;;;;4.20;2.60;;;7.00;99.90;;;;;;5072902;28;20248;-48
2023/02/17 06:20:41;;;;;;;2.23;1.80;;;7.00;99.90;;;;;;5056339;28;20200;-47
2023/02/17 06:23:08;;;;;;;4.33;1.90;;;7.00;99.90;;;;;;5072641;28;20724;-47
2023/02/17 06:25:35;;;;;;;5.20;2.03;;;7.00;99.90;;;;;;5061213;28;20735;-48
2023/02/17 06:28:04;;;;;;;2.13;1.57;;;6.80;99.90;;;;;;5060274;28;20681;-48
2023/02/17 06:30:30;;;;;;;5.47;1.67;;;7.00;99.90;;;;;;5051803;28;20196;-48
2023/02/17 06:32:58;;;;;;;2.77;1.80;;;7.00;99.90;;;;;;5060622;28;20223;-47
2023/02/17 06:35:25;;;;;;;4.73;2.53;;;7.00;99.90;;;;;;5055675;28;20277;-48
2023/02/17 06:37:52;;;;;;;5.20;1.50;;;7.00;99.90;;;;;;5055034;28;20201;-49
2023/02/17 06:40:19;;;;;;;2.93;2.07;;;7.10;99.90;;;;;;5066476;28;20201;-47
2023/02/17 06:42:46;;;;;;;2.73;1.60;;;7.10;99.90;;;;;;5060181;28;20228;-48
2023/02/17 06:45:14;;;;;;;2.77;2.00;;;7.20;99.90;;;;;;5051565;28;20197;-48
2023/02/17 06:47:41;;;;;;;2.03;1.33;;;7.30;99.90;;;;;;5061708;28;20211;-49
2023/02/17 06:50:09;;;;;;;2.57;2.37;;;7.30;99.90;;;;;;5065212;28;20203;-48
2023/02/17 06:52:37;;;;;;;2.47;1.60;;;7.40;99.90;;;;;;5049779;28;20289;-49
2023/02/17 06:55:04;;;;;;;5.23;1.67;;;7.40;99.90;;;;;;5049417;28;20240;-48
2023/02/17 06:57:35;;;;;;;2.77;1.77;;;7.40;99.90;;;;;;5058924;28;20261;-48
2023/02/17 07:00:02;;;;;;;5.90;1.67;;;7.50;99.90;;;;;;5044365;28;20207;-48
2023/02/17 07:02:31;;;;;;;3.37;1.50;;;7.50;99.90;;;;;;5059570;28;20308;-48
2023/02/17 07:04:57;;;;;;;5.93;1.83;;;7.50;99.90;;;;;;5052002;28;20618;-47
2023/02/17 07:07:25;;;;;;;2.67;1.67;;;7.50;99.90;;;;;;5051970;28;20199;-48
2023/02/17 07:09:52;;;;;;;2.40;1.20;;;7.50;99.90;;;;;;5048048;28;20200;-48
2023/02/17 07:12:18;;;;;;;3.23;1.43;;;7.60;99.90;;;;;;5053559;28;20231;-48
2023/02/17 07:14:46;;;;;;;2.13;1.40;;;7.70;99.90;;;;;;5047749;28;20609;-48
2023/02/17 07:17:13;;;;;;;2.90;1.73;;;7.70;99.90;;;;;;5051536;28;20226;-48
2023/02/17 07:19:41;;;;;;;3.10;2.17;;;7.70;99.90;;;;;;5050294;28;20280;-48
2023/02/17 07:22:08;;;;;;;7.87;3.80;;;7.80;99.90;;;;;;5046213;28;20250;-49
2023/02/17 07:24:35;;;;;;;7.47;5.87;;;7.80;99.90;;;;;;5049826;28;20237;-48
2023/02/17 07:27:04;;;;;;;7.13;2.83;;;7.80;99.90;;;;;;5050953;28;20670;-48
2023/02/17 07:29:31;;;;;;;2.83;2.03;;;7.90;99.90;;;;;;5051896;28;20195;-48
2023/02/17 07:31:58;;;;;;;8.27;2.37;;;8.00;99.90;;;;;;5051450;28;20293;-48
2023/02/17 07:34:26;;;;;;;3.97;1.10;;;8.10;99.90;;;;;;5051348;28;20683;-48
2023/02/17 07:36:54;;;;;;;2.00;0.97;;;8.20;99.90;;;;;;5055530;28;20675;-48
2023/02/17 07:39:21;;;;;;;1.20;0.90;;;8.30;99.90;;;;;;5059476;28;20201;-48
2023/02/17 07:41:48;;;;;;;3.50;1.30;;;8.40;99.90;;;;;;5052844;28;20261;-47
2023/02/17 07:44:15;;;;;;;3.27;1.27;;;8.40;99.90;;;;;;5059314;28;20223;-48
2023/02/17 07:46:41;;;;;;;5.63;1.30;;;8.40;99.90;;;;;;5053127;28;20533;-49
2023/02/17 07:49:08;;;;;;;1.60;1.47;;;8.40;99.90;;;;;;5054340;28;20667;-48
2023/02/17 07:51:35;;;;;;;1.37;1.27;;;8.40;99.90;;;;;;5054360;28;20225;-48
2023/02/17 07:54:06;;;;;;;4.10;1.60;;;8.50;99.90;;;;;;5049210;28;20219;-48
2023/02/17 07:56:33;;;;;;;3.13;0.80;;;8.40;99.90;;;;;;5058956;28;20732;-48
2023/02/17 07:59:00;;;;;;;3.07;1.40;;;8.40;99.90;;;;;;5070854;28;20257;-49
2023/02/17 08:01:27;;;;;;;1.30;1.20;;;8.40;99.90;;;;;;5056839;28;20274;-49
2023/02/17 08:03:54;;;;;;;2.30;1.53;;;8.40;99.90;;;;;;5057164;28;20272;-49
2023/02/17 08:06:23;;;;;;;6.13;3.83;;;8.40;99.90;;;;;;5066227;28;20620;-49
2023/02/17 08:14:24;;;;;;;3.80;2.70;;;8.40;99.90;;;;;;5041867;28;20203;-49
2023/02/17 08:16:51;;;;;;;6.57;2.53;;;8.40;99.90;;;;;;5061647;28;20206;-49
2023/02/17 08:19:18;;;;;;;8.80;3.33;;;8.40;99.90;;;;;;5057531;28;20202;-49
2023/02/17 08:21:46;;;;;;;5.57;3.17;;;8.40;99.90;;;;;;5043211;28;20289;-48
2023/02/17 08:24:15;;;;;;;4.07;2.40;;;8.50;99.90;;;;;;5049857;28;20313;-49
2023/02/17 08:26:43;;;;;;;3.37;2.63;;;8.60;99.90;;;;;;5069091;28;20557;-49
2023/02/17 08:29:10;;;;;;;5.20;3.10;;;8.60;99.90;;;;;;5058091;28;20195;-48
2023/02/17 08:31:37;;;;;;;4.87;2.80;;;8.60;99.90;;;;;;5050629;28;20239;-48
2023/02/17 08:34:06;;;;;;;5.43;3.07;;;8.60;99.90;;;;;;5050796;28;20200;-48
2023/02/17 08:36:36;;;;;;;18.93;4.33;;;8.60;99.90;;;;;;5049908;28;20208;-49
2023/02/17 08:39:05;;;;;;;6.80;3.70;;;8.60;99.90;;;;;;5050960;28;20581;-50
2023/02/17 08:41:36;;;;;;;5.03;3.80;;;8.50;99.90;;;;;;5050211;28;20214;-49
2023/02/17 08:44:08;;;;;;;5.13;4.60;;;8.50;99.90;;;;;;5049486;28;20725;-49
2023/02/17 08:46:36;;;;;;;5.37;3.27;;;8.50;99.90;;;;;;5051795;28;20254;-49
2023/02/17 08:49:04;;;;;;;7.77;3.17;;;8.50;99.90;;;;;;5050931;28;20227;-49
2023/02/17 08:51:31;;;;;;;4.60;2.90;;;8.70;99.90;;;;;;5050676;28;20289;-48
2023/02/17 08:54:00;;;;;;;9.50;3.07;;;8.60;99.90;;;;;;5048071;28;20252;-49
2023/02/17 08:56:28;;;;;;;5.43;4.50;;;8.70;99.90;;;;;;5050551;28;20497;-49
2023/02/17 08:58:55;;;;;;;5.40;3.70;;;8.80;99.90;;;;;;5050318;28;20287;-50
2023/02/17 09:01:24;;;;;;;5.13;3.90;;;8.80;99.90;;;;;;5050695;28;20322;-49
2023/02/17 09:03:52;;;;;;;7.57;3.43;;;8.90;99.90;;;;;;5057176;28;20224;-50
2023/02/17 09:06:20;;;;;;;4.17;2.90;;;8.90;99.90;;;;;;5059769;28;20200;-49
2023/02/17 09:08:47;;;;;;;6.87;3.53;;;8.90;99.90;;;;;;5057577;28;20220;-51
2023/02/17 09:11:16;;;;;;;6.17;2.90;;;9.00;99.90;;;;;;5052709;28;20216;-49
2023/02/17 09:13:43;;;;;;;3.13;2.83;;;9.00;99.90;;;;;;5057363;28;20569;-48
2023/02/17 09:16:10;;;;;;;3.83;3.27;;;9.10;99.90;;;;;;5043696;28;20270;-49
2023/02/17 09:18:39;;;;;;;6.93;3.30;;;9.20;99.90;;;;;;5050994;28;20212;-49
2023/02/17 09:21:07;;;;;;;4.00;3.33;;;9.40;99.90;;;;;;5059651;28;20289;-49
2023/02/17 09:23:34;;;;;;;10.00;4.70;;;9.60;99.90;;;;;;5060878;28;20596;-49
2023/02/17 09:26:04;;;;;;;5.00;3.60;;;9.80;99.90;;;;;;5073871;28;20250;-49
2023/02/17 09:28:32;;;;;;;5.00;3.03;;;9.90;99.90;;;;;;5073639;28;20293;-49
2023/02/17 09:30:59;;;;;;;5.50;3.53;;;10.00;99.90;;;;;;5061764;28;20232;-49
2023/02/17 09:33:26;;;;;;;8.47;3.90;;;10.00;99.90;;;;;;5061890;28;20254;-49
2023/02/17 09:35:54;;;;;;;3.43;2.77;;;10.00;99.90;;;;;;5073399;28;20199;-49
2023/02/17 09:38:22;;;;;;;5.57;2.60;;;9.90;99.90;;;;;;5073686;28;20669;-49
2023/02/17 09:40:50;;;;;;;6.60;2.93;;;10.00;99.90;;;;;;5063920;28;20207;-49
2023/02/17 09:43:21;;;;;;;3.40;2.50;;;10.00;99.90;;;;;;5067688;28;20222;-49
2023/02/17 09:45:50;;;;;;;5.97;2.40;;;10.00;99.90;;;;;;5073700;28;20282;-49
2023/02/17 09:48:20;;;;;;;10.47;5.87;;;10.00;99.90;;;;;;5073586;28;20203;-48
2023/02/17 09:50:54;;;;;;;5.63;2.90;;;10.10;99.90;;;;;;5073326;28;20270;-48
2023/02/17 09:53:31;;;;;;;6.30;3.03;;;10.20;99.90;;;;;;5073546;28;20634;-49
2023/02/17 09:56:03;;;;;;;7.13;2.40;;;10.30;99.90;;;;;;5062264;28;20254;-48
2023/02/17 09:58:34;;;;;;;4.43;1.87;;;10.50;99.90;;;;;;5069671;28;20206;-52
2023/02/17 10:01:04;;;;;;;3.33;1.90;;;10.60;99.90;;;;;;5073305;28;20222;-48
2023/02/17 10:03:37;;;;;;;10.93;2.13;;;10.60;99.90;;;;;;5073149;28;20279;-48
2023/02/17 10:06:13;;;;;;;4.87;1.80;;;10.60;99.90;;;;;;5073414;28;20588;-49
2023/02/17 10:08:49;;;;;;;3.13;1.40;;;10.60;99.90;;;;;;5070723;28;20225;-49
2023/02/17 10:11:23;;;;;;;3.53;1.63;;;10.70;99.90;;;;;;5064538;28;20272;-49
2023/02/17 10:13:52;;;;;;;5.30;1.60;;;10.70;99.90;;;;;;5073235;28;20266;-49
2023/02/17 10:16:23;;;;;;;3.23;1.80;;;10.70;99.90;;;;;;5073160;28;20418;-50
2023/02/17 10:18:58;;;;;;;2.43;1.53;;;10.70;99.90;;;;;;5073121;28;20326;-49
2023/02/17 10:21:29;;;;;;;2.63;1.93;;;10.80;99.90;;;;;;5072899;28;20227;-49
2023/02/17 10:23:57;;;;;;;4.33;1.70;;;10.90;99.90;;;;;;5065375;28;20216;-49
2023/02/17 10:26:42;;;;;;;5.57;2.07;;;10.90;99.90;;;;;;5054298;28;20204;-49
2023/02/17 10:29:17;;;;;;;6.07;1.97;;;10.90;99.90;;;;;;5042986;28;20204;-49
2023/02/17 10:31:46;;;;;;;2.50;1.97;;;10.90;99.90;;;;;;5052963;28;20922;-50
2023/02/17 10:34:22;;;;;;;3.20;1.10;;;11.00;99.90;;;;;;5056428;28;20253;-49
2023/02/17 10:36:57;;;;;;;3.67;1.70;;;11.00;99.90;;;;;;5053364;28;20509;-49
2023/02/17 10:39:49;;;;;;;4.70;1.03;;;11.00;99.90;;;;;;5056003;28;20257;-49
2023/02/17 10:42:21;;;;;;;3.00;1.27;;;11.10;99.90;;;;;;5052418;28;20614;-49
2023/02/17 10:44:51;;;;;;;2.50;1.00;;;11.00;99.90;;;;;;5070785;28;20311;-49
2023/02/17 10:47:18;;;;;;;2.13;1.03;;;11.00;99.90;;;;;;5061475;28;20593;-49
2023/02/17 10:49:49;;;;;;;4.30;1.53;;;11.00;99.90;;;;;;5053595;28;20202;-48
2023/02/17 10:52:19;;;;;;;2.77;1.33;;;11.00;99.90;;;;;;5049576;28;20269;-48
2023/02/17 10:54:52;;;;;;;2.87;1.33;;;11.10;99.90;;;;;;5052599;28;20200;-49
2023/02/17 10:57:22;;;;;;;2.80;1.73;;;11.20;99.90;;;;;;5057302;28;20265;-49
2023/02/17 10:59:50;;;;;;;4.77;2.27;;;11.30;99.90;;;;;;5068166;28;20268;-49
2023/02/17 11:02:24;;;;;;;4.47;2.30;;;11.30;99.90;;;;;;5072303;28;20245;-49
2023/02/17 11:04:54;;;;;;;3.87;2.60;;;11.40;99.90;;;;;;5054924;28;20651;-49
2023/02/17 11:07:34;;;;;;;3.80;2.27;;;11.30;99.90;;;;;;5052783;28;20325;-49
2023/02/17 11:10:19;;;;;;;9.53;2.07;;;11.20;99.90;;;;;;5048794;28;20261;-49
2023/02/17 11:12:46;;;;;;;4.50;2.10;;;11.20;99.90;;;;;;5059504;28;20224;-49
2023/02/17 11:15:17;;;;;;;3.60;1.70;;;11.10;99.90;;;;;;5053484;28;20654;-49
2023/02/17 11:17:45;;;;;;;8.73;2.10;;;10.90;99.90;;;;;;5046277;28;20208;-49
2023/02/17 11:20:34;;;;;;;4.47;2.53;;;10.90;99.90;;;;;;5048616;28;20234;-47
2023/02/17 11:23:21;;;;;;;8.03;2.30;;;10.90;99.90;;;;;;5059580;28;20270;-49
2023/02/17 11:25:59;;;;;;;5.33;2.50;;;10.90;99.90;;;;;;5055894;28;20210;-49
2023/02/17 11:28:26;;;;;;;8.17;4.33;;;10.80;99.90;;;;;;5062391;28;20199;-48
2023/02/17 11:30:56;;;;;;;4.20;2.80;;;10.90;99.90;;;;;;5045052;28;20201;-48
2023/02/17 11:33:29;;;;;;;3.60;2.33;;;11.00;99.90;;;;;;5051826;28;20194;-48
2023/02/17 11:35:57;;;;;;;5.03;2.77;;;11.00;99.90;;;;;;5066439;28;20214;-48
2023/02/17 11:38:26;;;;;;;5.33;3.70;;;11.00;99.90;;;;;;5055442;28;20195;-47
2023/02/17 11:40:57;;;;;;;8.37;3.20;;;11.00;99.90;;;;;;5058904;28;20636;-47
2023/02/17 11:43:25;;;;;;;5.43;3.37;;;11.00;99.90;;;;;;5037028;28;20203;-47
2023/02/17 11:46:06;;;;;;;6.20;3.47;;;11.00;99.90;;;;;;5030504;28;20268;-48
2023/02/17 11:49:12;;;;;;;6.47;3.47;;;11.10;99.90;;;;;;5036214;28;20206;-47
2023/02/17 11:51:51;;;;;;;6.27;3.40;;;11.20;99.90;;;;;;5048615;28;20217;-49
2023/02/17 11:54:28;;;;;;;3.80;3.50;;;11.20;99.90;;;;;;5056380;28;20188;-48
2023/02/17 11:57:11;;;;;;;3.37;3.07;;;11.40;99.90;;;;;;5051067;28;20214;-48
2023/02/17 11:59:56;;;;;;;5.53;3.10;;;11.30;99.90;;;;;;5050555;28;20200;-47
2023/02/17 12:02:43;;;;;;;3.60;2.70;;;11.20;99.90;;;;;;5053392;28;20232;-47
2023/02/17 12:05:21;;;;;;;4.17;2.97;;;11.10;99.90;;;;;;5048606;28;20227;-49
2023/02/17 12:08:11;;;;;;;5.53;3.33;;;11.10;99.90;;;;;;5048628;28;20273;-49
2023/02/17 12:10:52;;;;;;;3.27;2.97;;;11.00;99.90;;;;;;5041538;28;20269;-48
2023/02/17 12:13:39;;;;;;;5.60;3.03;;;11.00;99.90;;;;;;5047165;28;20200;-47
2023/02/17 12:16:21;;;;;;;10.23;4.43;;;11.00;99.90;;;;;;5040507;28;20222;-48
2023/02/17 12:19:02;;;;;;;8.27;3.33;;;10.90;99.90;;;;;;5042099;28;20229;-47
2023/02/17 12:21:40;;;;;;;16.53;4.57;;;10.90;99.90;;;;;;5055562;28;20298;-47
2023/02/17 12:24:44;;;;;;;6.73;4.00;;;10.90;99.90;;;;;;5041998;28;20235;-49
2023/02/17 12:27:23;;;;;;;8.23;4.30;;;11.00;99.90;;;;;;5044154;28;20637;-48
2023/02/17 12:30:06;;;;;;;19.50;6.07;;;11.10;99.90;;;;;;5044888;28;20196;-47
2023/02/17 12:32:46;;;;;;;17.63;7.43;;;11.20;99.90;;;;;;5049750;28;20261;-48
2023/02/17 12:35:18;;;;;;;19.03;7.93;;;11.30;99.90;;;;;;5055467;28;20199;-48
2023/02/17 12:37:50;;;;;;;9.20;5.63;;;11.30;99.90;;;;;;5048340;28;20208;-47
2023/02/17 12:40:33;;;;;;;17.67;6.00;;;11.40;99.90;;;;;;5043630;28;20200;-46
2023/02/17 12:43:05;;;;;;;16.90;6.00;;;11.40;99.90;;;;;;5045769;28;20223;-48
2023/02/17 12:45:39;;;;;;;10.70;4.50;;;11.40;99.90;;;;;;5053558;28;20277;-48
2023/02/17 12:48:15;;;;;;;10.83;4.50;;;11.40;99.90;;;;;;5055073;28;20279;-49
2023/02/17 12:50:52;;;;;;;9.37;5.00;;;11.50;99.90;;;;;;5048355;28;20212;-47
2023/02/17 12:53:28;;;;;;;10.87;5.40;;;11.40;99.90;;;;;;5049748;28;20261;-48
2023/02/17 12:55:59;;;;;;;13.00;5.47;;;11.40;99.90;;;;;;5049654;28;20768;-48
2023/02/17 12:58:28;;;;;;;8.53;5.40;;;11.40;99.90;;;;;;5061415;28;20201;-48
2023/02/17 13:01:03;;;;;;;10.57;6.33;;;11.50;99.90;;;;;;5062411;28;20241;-48
2023/02/17 13:03:30;;;;;;;14.87;6.63;;;11.40;99.90;;;;;;5053395;28;20196;-49
2023/02/17 13:06:03;;;;;;;14.50;6.07;;;11.40;99.90;;;;;;5055152;28;20214;-47
2023/02/17 13:08:36;;;;;;;12.37;5.03;;;11.40;99.90;;;;;;5062271;28;20617;-47
2023/02/17 13:11:06;;;;;;;8.17;4.37;;;11.40;99.90;;;;;;5032929;28;20222;-48
2023/02/17 13:13:34;;;;;;;6.83;3.70;;;11.40;99.90;;;;;;5051375;28;20211;-47
2023/02/17 13:16:05;;;;;;;3.30;3.00;;;11.50;99.90;;;;;;5050398;28;20200;-48